createdAt,value
2023-04-01T00:00:03.149Z,86
2023-04-01T00:20:02.436Z,87
2023-04-01T00:40:02.883Z,87
2023-04-01T01:00:02.525Z,87
2023-04-01T01:20:03.377Z,87
2023-04-01T01:40:02.633Z,87
2023-04-01T02:00:02.970Z,87
2023-04-01T02:20:02.383Z,88
2023-04-01T02:40:02.643Z,88
2023-04-01T03:00:03.050Z,88
2023-04-01T03:20:02.995Z,88
2023-04-01T03:40:02.290Z,88
2023-04-01T04:00:02.646Z,89
2023-04-01T04:20:03.042Z,89
2023-04-01T04:40:02.449Z,89
2023-04-01T05:00:02.700Z,89
2023-04-01T05:20:03.236Z,88
2023-04-01T05:40:02.701Z,88
2023-04-01T06:00:03.148Z,87
2023-04-01T06:20:02.542Z,87
2023-04-01T06:40:02.932Z,87
2023-04-01T07:00:02.238Z,87
2023-04-01T07:20:03.043Z,87
2023-04-01T07:40:02.598Z,87
2023-04-01T08:00:03.099Z,88
2023-04-01T08:20:02.961Z,87
2023-04-01T08:40:02.470Z,87
2023-04-01T09:00:02.906Z,87
2023-04-01T09:20:02.561Z,87
2023-04-01T09:40:03.154Z,86
2023-04-01T10:00:03.200Z,86
2023-04-01T10:20:02.898Z,86
2023-04-01T10:40:02.267Z,85
2023-04-01T11:00:03.276Z,84
2023-04-01T11:20:03.008Z,84
2023-04-01T11:40:02.421Z,82
2023-04-01T12:00:03.005Z,82
2023-04-01T12:20:02.890Z,82
2023-04-01T12:40:02.424Z,82
2023-04-01T13:00:02.911Z,82
2023-04-01T13:20:06.625Z,82
2023-04-01T13:40:03.198Z,81
2023-04-01T14:00:02.559Z,81
2023-04-01T14:20:04.625Z,81
2023-04-01T14:40:03.236Z,81
2023-04-01T15:00:03.140Z,80
2023-04-01T15:20:02.869Z,80
2023-04-01T15:40:02.354Z,81
2023-04-01T16:00:03.005Z,80
2023-04-01T16:20:02.649Z,81
2023-04-01T16:40:02.966Z,81
2023-04-01T17:00:02.257Z,81
2023-04-01T17:20:02.733Z,81
2023-04-01T17:40:02.995Z,82
2023-04-01T18:00:02.760Z,82
2023-04-01T18:20:02.663Z,82
2023-04-01T18:40:03.068Z,82
2023-04-01T19:00:02.582Z,82
2023-04-01T19:20:02.956Z,82
2023-04-01T19:40:02.480Z,82
2023-04-01T20:00:02.898Z,83
2023-04-01T20:20:02.695Z,82
2023-04-01T20:40:03.294Z,83
2023-04-01T21:00:02.718Z,82
2023-04-01T21:20:03.024Z,82
2023-04-01T21:40:02.572Z,83
2023-04-01T22:00:03.129Z,82
2023-04-01T22:20:02.631Z,82
2023-04-01T22:40:02.988Z,82
2023-04-01T23:00:02.411Z,81
2023-04-01T23:20:02.890Z,81
2023-04-01T23:40:03.134Z,80
